Time;durP1;ratioP1;P1;durP2;ratioP2;P2;SDS_P1;SDS_P2;PMS_P1;PMS_P2;Temp;Humidity;BMP_temperature;BMP_pressure;BME280_temperature;BME280_humidity;BME280_pressure;Samples;Min_cycle;Max_cycle;Signal;HPM_P1;HPM_P2
2024/02/18 00:00:38;;;;;;;0.75;0.50;;;;;;;-143.29;100.00;62188.47;4915951;29;20035;-95
2024/02/18 00:03:03;;;;;;;1.48;0.55;;;;;;;-143.29;100.00;62188.47;4915935;29;20115;-95
2024/02/18 00:05:33;;;;;;;1.52;0.40;;;;;;;-143.29;100.00;62188.47;4916286;29;20035;-95
2024/02/18 00:07:58;;;;;;;1.02;0.50;;;;;;;-143.29;100.00;62188.47;4915987;29;20550;-94
2024/02/18 00:10:24;;;;;;;1.38;0.47;;;;;;;-143.29;100.00;62188.47;4916322;29;20036;-95
2024/02/18 00:12:49;;;;;;;3.35;0.73;;;;;;;-143.29;100.00;62188.47;4916487;29;20028;-95
2024/02/18 00:15:15;;;;;;;1.65;0.90;;;;;;;-143.29;100.00;62188.47;4916306;29;20072;-95
2024/02/18 00:17:40;;;;;;;1.98;1.02;;;;;;;-143.29;100.00;62188.47;4916151;29;20056;-95
2024/02/18 00:20:06;;;;;;;2.72;1.10;;;;;;;-143.29;100.00;62188.47;4916063;29;20028;-95
2024/02/18 00:22:31;;;;;;;2.28;1.10;;;;;;;-143.29;100.00;62188.47;4915787;29;20467;-95
2024/02/18 00:24:56;;;;;;;1.80;0.90;;;;;;;-143.29;100.00;62188.47;4915145;29;20419;-95
2024/02/18 00:27:22;;;;;;;0.70;0.70;;;;;;;-143.29;100.00;62188.47;4915840;29;20042;-94
2024/02/18 00:29:47;;;;;;;0.93;0.82;;;;;;;-143.29;100.00;62188.47;4915659;29;20036;-95
2024/02/18 00:32:12;;;;;;;0.98;0.57;;;;;;;-143.29;100.00;62188.47;4915833;29;20115;-95
2024/02/18 00:34:38;;;;;;;1.60;0.80;;;;;;;-143.29;100.00;62188.47;4916097;29;20028;-95
2024/02/18 00:37:03;;;;;;;2.50;0.70;;;;;;;-143.29;100.00;62188.47;4915726;29;20511;-94
2024/02/18 00:39:29;;;;;;;3.75;0.77;;;;;;;-143.29;100.00;62188.47;4916015;29;20036;-94
2024/02/18 00:41:54;;;;;;;1.15;0.70;;;;;;;-143.29;100.00;62188.47;4915871;29;20024;-95
2024/02/18 00:44:23;;;;;;;1.10;0.80;;;;;;;-143.29;100.00;62188.47;4915605;29;20060;-95
2024/02/18 00:46:50;;;;;;;0.90;0.70;;;;;;;-143.29;100.00;62188.47;4915603;29;20047;-95
2024/02/18 00:49:15;;;;;;;1.67;0.73;;;;;;;-143.29;100.00;62188.47;4916084;29;20514;-94
2024/02/18 00:51:41;;;;;;;1.23;0.82;;;;;;;-143.29;100.00;62188.47;4916309;29;20029;-95
2024/02/18 00:54:06;;;;;;;2.45;0.70;;;;;;;-143.29;100.00;62188.47;4916225;29;20040;-95
2024/02/18 00:56:31;;;;;;;1.55;0.68;;;;;;;-143.29;100.00;62188.47;4915653;29;20562;-95
2024/02/18 00:58:57;;;;;;;2.67;1.00;;;;;;;-143.29;100.00;62188.47;4915871;29;20032;-95
2024/02/18 01:01:22;;;;;;;1.27;1.10;;;;;;;-143.29;100.00;62188.47;4915957;29;20058;-94
2024/02/18 01:03:48;;;;;;;1.48;1.02;;;;;;;-143.29;100.00;62188.47;4916119;29;20108;-94
2024/02/18 01:06:13;;;;;;;1.80;1.00;;;;;;;-143.29;100.00;62188.47;4915782;29;20482;-94
2024/02/18 01:08:38;;;;;;;1.20;1.10;;;;;;;-143.29;100.00;62188.47;4915275;29;20028;-94
2024/02/18 01:11:04;;;;;;;1.20;1.00;;;;;;;-143.29;100.00;62188.47;4915432;29;20427;-95
2024/02/18 01:13:29;;;;;;;3.97;1.30;;;;;;;-143.29;100.00;62188.47;4915488;29;20032;-95
2024/02/18 01:15:55;;;;;;;1.27;1.10;;;;;;;-143.29;100.00;62188.47;4915774;29;20100;-95
2024/02/18 01:18:20;;;;;;;2.08;0.80;;;;;;;-143.29;100.00;62188.47;4915407;29;20084;-95
2024/02/18 01:20:46;;;;;;;2.13;1.08;;;;;;;-143.29;100.00;62188.47;4915367;29;20054;-95
2024/02/18 01:23:11;;;;;;;1.60;1.05;;;;;;;-143.29;100.00;62188.47;4915690;29;20032;-95
2024/02/18 01:25:37;;;;;;;0.70;0.70;;;;;;;-143.29;100.00;62188.47;4915509;29;20119;-94
2024/02/18 01:28:03;;;;;;;0.70;0.70;;;;;;;-143.29;100.00;62188.47;4915574;29;20494;-95
2024/02/18 01:30:28;;;;;;;1.60;0.75;;;;;;;-143.29;100.00;62188.47;4915547;29;20382;-94
2024/02/18 01:32:54;;;;;;;1.40;0.68;;;;;;;-143.29;100.00;62188.47;4915701;29;20115;-94
2024/02/18 01:35:19;;;;;;;0.70;0.57;;;;;;;-143.29;100.00;62188.47;4915738;29;20030;-95
2024/02/18 01:37:45;;;;;;;2.28;1.00;;;;;;;-143.29;100.00;62188.47;4917943;29;20114;-95
2024/02/18 01:40:11;;;;;;;1.20;0.95;;;;;;;-143.29;100.00;62188.47;4918789;29;20028;-94
2024/02/18 01:42:38;;;;;;;1.73;1.00;;;;;;;-143.29;100.00;62188.47;4919167;29;20047;-95
2024/02/18 01:45:05;;;;;;;3.20;0.98;;;;;;;-143.29;100.00;62188.47;4919188;29;20020;-95
2024/02/18 01:47:31;;;;;;;0.60;0.60;;;;;;;-143.29;100.00;62188.47;4918780;29;20028;-94
2024/02/18 01:49:57;;;;;;;0.70;0.60;;;;;;;-143.29;100.00;62188.47;4918408;29;20028;-95
2024/02/18 01:52:24;;;;;;;1.55;1.00;;;;;;;-143.29;100.00;62188.47;4918609;29;20032;-94
2024/02/18 01:54:50;;;;;;;2.97;1.35;;;;;;;-143.29;100.00;62188.47;4918802;29;20056;-94
2024/02/18 01:57:17;;;;;;;3.88;1.05;;;;;;;-143.29;100.00;62188.47;4918461;29;20024;-94
2024/02/18 01:59:44;;;;;;;1.33;1.23;;;;;;;-143.29;100.00;62188.47;4918299;29;20031;-94
2024/02/18 02:02:09;;;;;;;3.47;1.85;;;;;;;-143.29;100.00;62188.47;4918487;29;20435;-95
2024/02/18 02:04:35;;;;;;;2.78;2.20;;;;;;;-143.29;100.00;62188.47;4918296;29;20028;-94
2024/02/18 02:07:01;;;;;;;2.95;1.85;;;;;;;-143.29;100.00;62188.47;4918127;29;20056;-95
2024/02/18 02:09:26;;;;;;;2.00;1.80;;;;;;;-143.29;100.00;62188.47;4918154;29;20120;-95
2024/02/18 02:11:52;;;;;;;2.67;1.63;;;;;;;-143.29;100.00;62188.47;4918507;29;20063;-94
2024/02/18 02:14:17;;;;;;;5.57;2.30;;;;;;;-143.29;100.00;62188.47;4918255;29;20100;-95
2024/02/18 02:16:43;;;;;;;2.20;2.00;;;;;;;-143.29;100.00;62188.47;4918226;29;20028;-96
2024/02/18 02:19:08;;;;;;;2.20;2.00;;;;;;;-143.29;100.00;62188.47;4918271;29;20071;-96
2024/02/18 02:21:34;;;;;;;6.25;2.10;;;;;;;-143.29;100.00;62188.47;4918217;29;20028;-95
2024/02/18 02:23:59;;;;;;;2.42;1.33;;;;;;;-143.29;100.00;62188.47;4918189;29;20032;-94
2024/02/18 02:26:29;;;;;;;1.95;1.15;;;;;;;-143.29;100.00;62188.47;4917623;29;20051;-94
2024/02/18 02:29:02;;;;;;;4.55;1.30;;;;;;;-143.29;100.00;62188.47;4918092;29;20396;-94
2024/02/18 02:31:28;;;;;;;2.58;1.08;;;;;;;-143.29;100.00;62188.47;4918198;29;20034;-95
2024/02/18 02:33:53;;;;;;;1.05;0.88;;;;;;;-143.29;100.00;62188.47;4918021;29;20101;-95
2024/02/18 02:36:18;;;;;;;2.47;1.10;;;;;;;-143.29;100.00;62188.47;4917958;29;20031;-95
2024/02/18 02:38:44;;;;;;;6.25;1.25;;;;;;;-143.29;100.00;62188.47;4918189;29;20087;-95
2024/02/18 02:41:09;;;;;;;3.05;0.90;;;;;;;-143.29;100.00;62188.47;4918096;29;20080;-95
2024/02/18 02:43:34;;;;;;;4.00;0.60;;;;;;;-143.29;100.00;62188.47;4917930;29;20028;-94
2024/02/18 02:46:01;;;;;;;2.30;0.47;;;;;;;-143.29;100.00;62188.47;4917680;29;20024;-96
2024/02/18 02:48:26;;;;;;;1.50;0.38;;;;;;;-143.29;100.00;62188.47;4916897;29;20028;-95
2024/02/18 02:50:51;;;;;;;2.53;0.50;;;;;;;-143.29;100.00;62188.47;4917666;29;20115;-96
2024/02/18 02:53:17;;;;;;;1.80;0.43;;;;;;;-143.29;100.00;62188.47;4917994;29;20407;-96
2024/02/18 02:55:42;;;;;;;0.98;0.40;;;;;;;-143.29;100.00;62188.47;4918107;29;20067;-95
2024/02/18 02:58:07;;;;;;;1.08;0.45;;;;;;;-143.29;100.00;62188.47;4917920;29;20491;-96
2024/02/18 03:00:33;;;;;;;0.98;0.28;;;;;;;-143.29;100.00;62188.47;4917976;29;20032;-95
2024/02/18 03:02:58;;;;;;;1.23;0.30;;;;;;;-143.29;100.00;62188.47;4917728;29;20402;-95
2024/02/18 03:05:23;;;;;;;0.20;0.15;;;;;;;-143.29;100.00;62188.47;4917433;29;20394;-95
2024/02/18 03:07:49;;;;;;;5.07;0.57;;;;;;;-143.29;100.00;62188.47;4916929;29;20036;-95
2024/02/18 03:10:14;;;;;;;1.35;0.30;;;;;;;-143.29;100.00;62188.47;4917384;29;20024;-95
2024/02/18 03:12:40;;;;;;;0.43;0.25;;;;;;;-143.29;100.00;62188.47;4917316;29;20067;-95
2024/02/18 03:15:05;;;;;;;1.13;0.30;;;;;;;-143.29;100.00;62188.47;4917449;29;20130;-95
2024/02/18 03:17:31;;;;;;;1.92;0.20;;;;;;;-143.29;100.00;62188.47;4917040;29;20470;-95
2024/02/18 03:19:56;;;;;;;1.40;0.17;;;;;;;-143.29;100.00;62188.47;4916882;29;20091;-95
2024/02/18 03:22:23;;;;;;;1.77;0.40;;;;;;;-143.29;100.00;62188.47;4916782;29;20028;-95
2024/02/18 03:24:49;;;;;;;0.30;0.10;;;;;;;-143.29;100.00;62188.47;4917011;29;20084;-96
2024/02/18 03:27:15;;;;;;;0.68;0.10;;;;;;;-143.29;100.00;62188.47;4916721;29;20036;-95
2024/02/18 03:29:41;;;;;;;2.00;0.30;;;;;;;-143.29;100.00;62188.47;4916926;29;20024;-95
2024/02/18 03:32:07;;;;;;;1.17;0.20;;;;;;;-143.29;100.00;62188.47;4917294;29;20038;-96
2024/02/18 03:34:33;;;;;;;2.05;0.55;;;;;;;-143.29;100.00;62188.47;4916963;29;20403;-95
2024/02/18 03:36:58;;;;;;;1.00;0.30;;;;;;;-143.29;100.00;62188.47;4918732;29;20087;-96
2024/02/18 03:39:23;;;;;;;2.53;0.30;;;;;;;-143.29;100.00;62188.47;4918471;29;20099;-96
2024/02/18 03:41:49;;;;;;;1.08;0.20;;;;;;;-143.29;100.00;62188.47;4917453;29;20030;-96
2024/02/18 03:44:14;;;;;;;0.40;0.20;;;;;;;-143.29;100.00;62188.47;4917060;29;20028;-95
2024/02/18 03:46:40;;;;;;;4.88;0.28;;;;;;;-143.29;100.00;62188.47;4916840;29;20036;-96
2024/02/18 03:49:05;;;;;;;0.85;0.20;;;;;;;-143.29;100.00;62188.47;4918175;29;20028;-95
2024/02/18 03:51:31;;;;;;;0.22;0.10;;;;;;;-143.29;100.00;62188.47;4916852;29;20400;-95
2024/02/18 03:53:56;;;;;;;0.10;0.10;;;;;;;-143.29;100.00;62188.47;4917230;29;20035;-95
2024/02/18 03:56:22;;;;;;;1.00;0.10;;;;;;;-143.29;100.00;62188.47;4918634;29;20039;-96
2024/02/18 03:58:47;;;;;;;1.20;0.10;;;;;;;-143.29;100.00;62188.47;4917768;29;20032;-96
2024/02/18 04:01:12;;;;;;;0.35;0.10;;;;;;;-143.29;100.00;62188.47;4918089;29;20028;-95
2024/02/18 04:03:38;;;;;;;2.78;0.20;;;;;;;-143.29;100.00;62188.47;4917598;29;20024;-94
2024/02/18 04:06:05;;;;;;;3.70;0.25;;;;;;;-143.29;100.00;62188.47;4917759;29;20031;-95
2024/02/18 04:08:31;;;;;;;0.08;0.05;;;;;;;-143.29;100.00;62188.47;4918130;29;20118;-96
2024/02/18 04:10:56;;;;;;;0.25;0.10;;;;;;;-143.29;100.00;62188.47;4918549;29;20064;-95
2024/02/18 04:13:21;;;;;;;4.93;0.30;;;;;;;-143.29;100.00;62188.47;4918823;29;20179;-95
2024/02/18 04:15:47;;;;;;;1.08;0.10;;;;;;;-143.29;100.00;62188.47;4918414;29;20107;-94
2024/02/18 04:18:13;;;;;;;0.90;0.10;;;;;;;-143.29;100.00;62188.47;4918337;29;20038;-95
2024/02/18 04:20:38;;;;;;;0.40;0.10;;;;;;;-143.29;100.00;62188.47;4919432;29;20028;-96
2024/02/18 04:23:03;;;;;;;0.43;0.00;;;;;;;-143.29;100.00;62188.47;4919094;29;20032;-95
2024/02/18 04:25:29;;;;;;;6.22;0.20;;;;;;;-143.29;100.00;62188.47;4919701;29;20052;-95
2024/02/18 04:27:54;;;;;;;0.10;0.10;;;;;;;-143.29;100.00;62188.47;4919269;29;20068;-95
2024/02/18 04:30:19;;;;;;;0.52;0.15;;;;;;;-143.29;100.00;62188.47;4919705;29;20033;-96
2024/02/18 04:32:45;;;;;;;0.10;0.10;;;;;;;-143.29;100.00;62188.47;4919386;29;20107;-96
2024/02/18 04:35:10;;;;;;;0.10;0.10;;;;;;;-143.29;100.00;62188.47;4919047;29;20144;-95
2024/02/18 04:37:36;;;;;;;6.15;0.55;;;;;;;-143.29;100.00;62188.47;4919232;29;20467;-96
2024/02/18 04:40:03;;;;;;;0.30;0.28;;;;;;;-143.29;100.00;62188.47;4918122;29;20034;-96
2024/02/18 04:42:28;;;;;;;0.32;0.10;;;;;;;-143.29;100.00;62188.47;4918663;29;20048;-95
2024/02/18 04:44:54;;;;;;;0.60;0.30;;;;;;;-143.29;100.00;62188.47;4919446;29;20020;-96
2024/02/18 04:47:19;;;;;;;0.30;0.30;;;;;;;-143.29;100.00;62188.47;4919468;29;20029;-95
2024/02/18 04:49:45;;;;;;;0.60;0.43;;;;;;;-143.29;100.00;62188.47;4918176;29;20028;-96
2024/02/18 04:52:10;;;;;;;0.17;0.15;;;;;;;-143.29;100.00;62188.47;4917875;29;20035;-96
2024/02/18 04:54:35;;;;;;;1.30;0.22;;;;;;;-143.29;100.00;62188.47;4918555;29;20076;-95
2024/02/18 04:57:01;;;;;;;0.28;0.25;;;;;;;-143.29;100.00;62188.47;4918163;29;20028;-95
2024/02/18 04:59:27;;;;;;;1.35;0.38;;;;;;;-143.29;100.00;62188.47;4917930;29;20176;-95
2024/02/18 05:01:53;;;;;;;0.20;0.20;;;;;;;-143.29;100.00;62188.47;4918117;29;20038;-96
2024/02/18 05:04:19;;;;;;;0.80;0.57;;;;;;;-143.29;100.00;62188.47;4919201;29;20024;-95
2024/02/18 05:06:48;;;;;;;1.17;0.40;;;;;;;-143.29;100.00;62188.47;4918349;29;20467;-95
2024/02/18 05:09:14;;;;;;;0.77;0.30;;;;;;;-143.29;100.00;62188.47;4917210;29;20483;-95
2024/02/18 05:11:39;;;;;;;0.55;0.32;;;;;;;-143.29;100.00;62188.47;4919069;29;20060;-95
2024/02/18 05:14:04;;;;;;;0.88;0.22;;;;;;;-143.29;100.00;62188.47;4921311;29;20024;-95
2024/02/18 05:16:30;;;;;;;3.63;0.17;;;;;;;-143.29;100.00;62188.47;4921380;29;20032;-96
2024/02/18 05:18:55;;;;;;;0.82;0.20;;;;;;;-143.29;100.00;62188.47;4921011;29;20024;-95
2024/02/18 05:21:21;;;;;;;2.70;0.10;;;;;;;-143.29;100.00;62188.47;4921521;29;20494;-95
2024/02/18 05:23:46;;;;;;;0.30;0.10;;;;;;;-143.29;100.00;62188.47;4921481;29;20075;-96
2024/02/18 05:26:12;;;;;;;0.20;0.00;;;;;;;-143.29;100.00;62188.47;4922411;29;20024;-95
2024/02/18 05:28:37;;;;;;;0.65;0.10;;;;;;;-143.29;100.00;62188.47;4921782;29;20036;-95
2024/02/18 05:31:20;;;;;;;0.13;0.10;;;;;;;-143.29;100.00;62188.47;4922532;29;20119;-95
2024/02/18 05:33:46;;;;;;;0.93;0.30;;;;;;;-143.29;100.00;62188.47;4922550;29;20099;-95
2024/02/18 05:36:11;;;;;;;1.70;0.10;;;;;;;-143.29;100.00;62188.47;4924284;29;20032;-95
2024/02/18 05:38:37;;;;;;;0.20;0.03;;;;;;;-143.29;100.00;62188.47;4924269;29;20039;-95
2024/02/18 05:41:03;;;;;;;3.72;0.40;;;;;;;-143.29;100.00;62188.47;4922968;29;20454;-95
2024/02/18 05:43:28;;;;;;;2.17;0.32;;;;;;;-143.29;100.00;62188.47;4923144;29;20024;-95
2024/02/18 05:45:53;;;;;;;0.32;0.30;;;;;;;-143.29;100.00;62188.47;4922551;29;20414;-96
2024/02/18 05:48:19;;;;;;;0.30;0.30;;;;;;;-143.29;100.00;62188.47;4922322;29;20035;-96
2024/02/18 05:50:44;;;;;;;0.52;0.30;;;;;;;-143.29;100.00;62188.47;4922308;29;20100;-95
2024/02/18 05:53:10;;;;;;;0.30;0.30;;;;;;;-143.29;100.00;62188.47;4921032;29;20095;-95
2024/02/18 05:55:35;;;;;;;1.60;0.47;;;;;;;-143.29;100.00;62188.47;4921684;29;20032;-95
2024/02/18 05:58:01;;;;;;;0.30;0.30;;;;;;;-143.29;100.00;62188.47;4921872;29;20045;-96
2024/02/18 06:00:26;;;;;;;0.77;0.60;;;;;;;-143.29;100.00;62188.47;4921651;29;20558;-96
2024/02/18 06:02:52;;;;;;;0.60;0.60;;;;;;;-143.29;100.00;62188.47;4921460;29;20043;-96
2024/02/18 06:05:18;;;;;;;1.00;0.80;;;;;;;-143.29;100.00;62188.47;4922534;29;20024;-95
2024/02/18 06:07:45;;;;;;;1.13;0.77;;;;;;;-143.29;100.00;62188.47;4925331;29;20032;-96
2024/02/18 06:10:11;;;;;;;0.82;0.75;;;;;;;-143.29;100.00;62188.47;4926519;29;20033;-96
2024/02/18 06:12:36;;;;;;;0.70;0.70;;;;;;;-143.29;100.00;62188.47;4925540;29;20063;-95
2024/02/18 06:15:02;;;;;;;1.10;1.00;;;;;;;-143.29;100.00;62188.47;4924146;29;20141;-96
2024/02/18 06:17:27;;;;;;;1.13;0.90;;;;;;;-143.29;100.00;62188.47;4923638;29;20024;-96
2024/02/18 06:19:53;;;;;;;2.05;0.68;;;;;;;-143.29;100.00;62188.47;4923646;29;20024;-95
2024/02/18 06:22:18;;;;;;;0.57;0.40;;;;;;;-143.29;100.00;62188.47;4923855;29;20036;-96
2024/02/18 06:24:44;;;;;;;0.20;0.20;;;;;;;-143.29;100.00;62188.47;4922626;29;20032;-95
2024/02/18 06:27:10;;;;;;;0.30;0.30;;;;;;;-143.29;100.00;62188.47;4922638;29;20242;-95
2024/02/18 06:29:36;;;;;;;0.80;0.70;;;;;;;-143.29;100.00;62188.47;4922432;29;20115;-95
2024/02/18 06:32:02;;;;;;;1.00;0.90;;;;;;;-143.29;100.00;62188.47;4922058;29;20024;-95
2024/02/18 06:34:27;;;;;;;1.23;1.13;;;;;;;-143.29;100.00;62188.47;4921779;29;20036;-95
2024/02/18 06:36:53;;;;;;;1.00;0.90;;;;;;;-143.29;100.00;62188.47;4921316;29;20028;-96
2024/02/18 06:39:19;;;;;;;1.52;1.42;;;;;;;-143.29;100.00;62188.47;4919555;29;20031;-95
2024/02/18 06:41:44;;;;;;;1.63;1.52;;;;;;;-143.29;100.00;62188.47;4921009;29;20368;-96
2024/02/18 06:44:10;;;;;;;2.45;1.50;;;;;;;-143.29;100.00;62188.47;4921326;29;20046;-96
2024/02/18 06:46:35;;;;;;;1.25;1.15;;;;;;;-143.29;100.00;62188.47;4921442;29;20042;-95
2024/02/18 06:49:01;;;;;;;1.50;1.30;;;;;;;-143.29;100.00;62188.47;4921692;29;20028;-96
2024/02/18 06:51:26;;;;;;;1.23;1.13;;;;;;;-143.29;100.00;62188.47;4921379;29;20031;-95
2024/02/18 06:53:52;;;;;;;1.80;1.52;;;;;;;-143.29;100.00;62188.47;4921448;29;20032;-96
2024/02/18 06:56:18;;;;;;;2.22;1.85;;;;;;;-143.29;100.00;62188.47;4921447;29;20028;-95
2024/02/18 06:58:43;;;;;;;1.60;1.40;;;;;;;-143.29;100.00;62188.47;4919652;29;20120;-96
2024/02/18 07:01:09;;;;;;;2.35;1.65;;;;;;;-143.29;100.00;62188.47;4920238;29;20088;-95
2024/02/18 07:03:34;;;;;;;2.38;1.52;;;;;;;-143.29;100.00;62188.47;4921304;29;20116;-96
2024/02/18 07:06:00;;;;;;;9.07;2.10;;;;;;;-143.29;100.00;62188.47;4918712;29;20043;-96
2024/02/18 07:08:25;;;;;;;3.85;2.10;;;;;;;-143.29;100.00;62188.47;4917765;29;20550;-96
2024/02/18 07:10:50;;;;;;;2.78;1.80;;;;;;;-143.29;100.00;62188.47;4918086;29;20024;-95
2024/02/18 07:13:16;;;;;;;2.55;1.60;;;;;;;-143.29;100.00;62188.47;4918394;29;20056;-96
2024/02/18 07:15:41;;;;;;;1.50;1.40;;;;;;;-143.29;100.00;62188.47;4918757;29;20040;-96
2024/02/18 07:18:07;;;;;;;2.35;1.52;;;;;;;-143.29;100.00;62188.47;4919942;29;20039;-96
2024/02/18 07:20:32;;;;;;;3.95;1.80;;;;;;;-143.29;100.00;62188.47;4918302;29;20040;-96
2024/02/18 07:22:59;;;;;;;4.70;1.95;;;;;;;-143.29;100.00;62188.47;4917632;29;20047;-95
2024/02/18 07:25:25;;;;;;;2.03;1.85;;;;;;;-143.29;100.00;62188.47;4919194;29;20028;-96
2024/02/18 07:27:50;;;;;;;2.92;1.80;;;;;;;-143.29;100.00;62188.47;4918644;29;20043;-96
2024/02/18 07:30:15;;;;;;;2.10;2.00;;;;;;;-143.29;100.00;62188.47;4918547;29;20516;-96
2024/02/18 07:32:41;;;;;;;2.15;1.95;;;;;;;-143.29;100.00;62188.47;4918400;29;20020;-96
2024/02/18 07:35:06;;;;;;;2.08;1.60;;;;;;;-143.29;100.00;62188.47;4918038;29;20031;-95
2024/02/18 07:37:32;;;;;;;2.20;1.67;;;;;;;-143.29;100.00;62188.47;4917518;29;20039;-95
2024/02/18 07:39:57;;;;;;;2.90;1.98;;;;;;;-143.29;100.00;62188.47;4917768;29;20542;-95
2024/02/18 07:42:22;;;;;;;3.40;2.00;;;;;;;-143.29;100.00;62188.47;4918061;29;20064;-95
2024/02/18 07:44:48;;;;;;;3.42;1.52;;;;;;;-143.29;100.00;62188.47;4917782;29;20126;-95
2024/02/18 07:47:13;;;;;;;3.25;1.60;;;;;;;-143.29;100.00;62188.47;4917578;29;20035;-95
2024/02/18 07:49:39;;;;;;;2.35;1.80;;;;;;;-143.29;100.00;62188.47;4917629;29;20032;-96
2024/02/18 07:52:05;;;;;;;2.33;1.45;;;;;;;-143.29;100.00;62188.47;4917292;29;20024;-95
2024/02/18 07:54:31;;;;;;;2.05;1.60;;;;;;;-143.29;100.00;62188.47;4917457;29;20482;-95
2024/02/18 07:56:56;;;;;;;1.70;1.52;;;;;;;-143.29;100.00;62188.47;4917000;29;20032;-95
2024/02/18 07:59:21;;;;;;;2.50;1.75;;;;;;;-143.29;100.00;62188.47;4917290;29;20032;-95
2024/02/18 08:01:48;;;;;;;2.08;1.20;;;;;;;-143.29;100.00;62188.47;4917455;29;20394;-95
2024/02/18 08:04:13;;;;;;;3.65;1.75;;;;;;;-143.29;100.00;62188.47;4917032;29;20103;-95
2024/02/18 08:06:39;;;;;;;4.78;2.00;;;;;;;-143.29;100.00;62188.47;4916823;29;20126;-95
2024/02/18 08:09:04;;;;;;;2.08;1.60;;;;;;;-143.29;100.00;62188.47;4917397;29;20479;-95
2024/02/18 08:11:29;;;;;;;2.33;1.95;;;;;;;-143.29;100.00;62188.47;4916914;29;20020;-94
2024/02/18 08:13:55;;;;;;;4.97;1.52;;;;;;;-143.29;100.00;62188.47;4916496;29;20032;-95
2024/02/18 08:16:20;;;;;;;3.35;2.58;;;;;;;-143.29;100.00;62188.47;4916621;29;20470;-96
2024/02/18 08:18:46;;;;;;;3.13;1.90;;;;;;;-143.29;100.00;62188.47;4917224;29;20501;-96
2024/02/18 08:21:11;;;;;;;3.13;2.28;;;;;;;-143.29;100.00;62188.47;4916695;29;20028;-95
2024/02/18 08:23:37;;;;;;;5.13;2.00;;;;;;;-143.29;100.00;62188.47;4916252;29;20036;-96
2024/02/18 08:26:03;;;;;;;2.42;2.00;;;;;;;-143.29;100.00;62188.47;4916575;29;20059;-95
2024/02/18 08:28:28;;;;;;;3.72;2.30;;;;;;;-143.29;100.00;62188.47;4916173;29;20491;-95
2024/02/18 08:30:54;;;;;;;5.10;2.67;;;;;;;-143.29;100.00;62188.47;4916239;29;20039;-95
2024/02/18 08:33:20;;;;;;;5.47;2.83;;;;;;;-143.29;100.00;62188.47;4915937;29;20021;-94
2024/02/18 08:35:45;;;;;;;4.47;2.67;;;;;;;-143.29;100.00;62188.47;4916338;29;20020;-95
2024/02/18 08:38:10;;;;;;;5.18;2.75;;;;;;;-143.29;100.00;62188.47;4916394;29;20076;-94
2024/02/18 08:40:36;;;;;;;5.45;2.50;;;;;;;-143.29;100.00;62188.47;4916622;29;20051;-94
2024/02/18 08:43:01;;;;;;;5.90;3.78;;;;;;;-143.29;100.00;62188.47;4916408;29;20118;-95
2024/02/18 08:45:26;;;;;;;4.40;2.92;;;;;;;-143.29;100.00;62188.47;4915671;29;20039;-95
2024/02/18 08:47:53;;;;;;;8.63;2.90;;;;;;;-143.29;100.00;62188.47;4915693;29;20028;-96
2024/02/18 08:50:18;;;;;;;8.82;3.80;;;;;;;-143.29;100.00;62188.47;4916371;29;20119;-95
2024/02/18 08:52:44;;;;;;;4.68;3.92;;;;;;;-143.29;100.00;62188.47;4916029;29;20119;-95
2024/02/18 08:55:09;;;;;;;6.10;3.42;;;;;;;-143.29;100.00;62188.47;4916297;29;20929;-95
2024/02/18 08:57:34;;;;;;;6.70;3.40;;;;;;;-143.29;100.00;62188.47;4915889;29;20021;-95
2024/02/18 09:00:02;;;;;;;5.60;3.13;;;;;;;-143.29;100.00;62188.47;4916064;29;20115;-95
2024/02/18 09:02:27;;;;;;;8.07;3.20;;;;;;;-143.29;100.00;62188.47;4915959;29;20123;-95
2024/02/18 09:04:53;;;;;;;8.18;3.45;;;;;;;-143.29;100.00;62188.47;4916062;29;20176;-95
2024/02/18 09:07:18;;;;;;;4.88;2.92;;;;;;;-143.29;100.00;62188.47;4915328;29;20119;-95
2024/02/18 09:09:44;;;;;;;4.43;3.35;;;;;;;-143.29;100.00;62188.47;4915971;29;20031;-95
2024/02/18 09:12:09;;;;;;;5.07;2.83;;;;;;;-143.29;100.00;62188.47;4915887;29;20127;-96
2024/02/18 09:14:35;;;;;;;5.97;2.83;;;;;;;-143.29;100.00;62188.47;4915732;29;20127;-95
2024/02/18 09:17:00;;;;;;;8.43;2.45;;;;;;;-143.29;100.00;62188.47;4915609;29;20024;-95
2024/02/18 09:19:25;;;;;;;4.15;2.35;;;;;;;-143.29;100.00;62188.47;4916138;29;20080;-95
2024/02/18 09:21:51;;;;;;;6.88;2.50;;;;;;;-143.29;100.00;62188.47;4915631;29;20131;-95
2024/02/18 09:24:16;;;;;;;6.25;2.80;;;;;;;-143.29;100.00;62188.47;4916029;29;20076;-96
2024/02/18 09:26:41;;;;;;;6.90;2.20;;;;;;;-143.29;100.00;62188.47;4915657;29;20157;-95
2024/02/18 09:29:07;;;;;;;5.80;1.98;;;;;;;-143.29;100.00;62188.47;4915707;29;20024;-96
2024/02/18 09:31:36;;;;;;;5.97;2.17;;;;;;;-143.29;100.00;62188.47;4915673;29;20423;-96
2024/02/18 09:34:02;;;;;;;6.05;2.05;;;;;;;-143.29;100.00;62188.47;4915797;29;20024;-95
2024/02/18 09:36:28;;;;;;;7.95;2.67;;;;;;;-143.29;100.00;62188.47;4915480;29;20028;-96
2024/02/18 09:38:53;;;;;;;6.25;2.08;;;;;;;-143.29;100.00;62188.47;4915569;29;20035;-95
2024/02/18 09:41:20;;;;;;;7.28;2.28;;;;;;;-143.29;100.00;62188.47;4915682;29;20494;-95
2024/02/18 09:43:46;;;;;;;5.25;2.33;;;;;;;-143.29;100.00;62188.47;4914978;29;20569;-95
2024/02/18 09:46:14;;;;;;;4.72;2.22;;;;;;;-143.29;100.00;62188.47;4915368;29;20059;-95
2024/02/18 09:48:41;;;;;;;6.78;2.80;;;;;;;-143.29;100.00;62188.47;4915534;29;20115;-96
2024/02/18 09:51:07;;;;;;;4.93;2.75;;;;;;;-143.29;100.00;62188.47;4915885;29;20039;-95
2024/02/18 09:53:35;;;;;;;8.95;3.80;;;;;;;-143.29;100.00;62188.47;4915725;29;20032;-96
2024/02/18 09:56:01;;;;;;;4.00;2.80;;;;;;;-143.29;100.00;62188.47;4915399;29;20074;-95
2024/02/18 09:58:27;;;;;;;5.53;3.22;;;;;;;-143.29;100.00;62188.47;4917573;29;20079;-95
2024/02/18 10:00:53;;;;;;;6.03;2.63;;;;;;;-143.29;100.00;62188.47;4918631;29;20032;-95
2024/02/18 10:03:19;;;;;;;7.25;3.88;;;;;;;-143.29;100.00;62188.47;4918783;29;20475;-95
2024/02/18 10:05:44;;;;;;;8.48;3.00;;;;;;;-143.29;100.00;62188.47;4918675;29;20115;-95
2024/02/18 10:08:09;;;;;;;7.22;3.08;;;;;;;-143.29;100.00;62188.47;4918743;29;20127;-95
2024/02/18 10:10:35;;;;;;;4.65;2.40;;;;;;;-143.29;100.00;62188.47;4918785;29;20034;-95
2024/02/18 10:13:02;;;;;;;8.10;3.03;;;;;;;-143.29;100.00;62188.47;4918941;29;20111;-94
2024/02/18 10:15:28;;;;;;;6.57;2.78;;;;;;;-143.29;100.00;62188.47;4918715;29;20028;-95
2024/02/18 10:17:53;;;;;;;7.43;3.03;;;;;;;-143.29;100.00;62188.47;4919327;29;20064;-96
2024/02/18 10:20:18;;;;;;;7.57;3.67;;;;;;;-143.29;100.00;62188.47;4919532;29;20414;-94
2024/02/18 10:22:44;;;;;;;8.85;3.75;;;;;;;-143.29;100.00;62188.47;4918069;29;20035;-96
2024/02/18 10:25:10;;;;;;;7.88;3.92;;;;;;;-143.29;100.00;62188.47;4918193;29;20026;-95
2024/02/18 10:27:37;;;;;;;5.55;3.25;;;;;;;-143.29;100.00;62188.47;4918130;29;20025;-95
2024/02/18 10:30:02;;;;;;;6.63;4.03;;;;;;;-143.29;100.00;62188.47;4918613;29;20031;-95
2024/02/18 10:32:29;;;;;;;9.38;3.75;;;;;;;-143.29;100.00;62188.47;4918508;29;20126;-95
2024/02/18 10:34:55;;;;;;;8.68;3.60;;;;;;;-143.29;100.00;62188.47;4918137;29;20032;-95
2024/02/18 10:37:38;;;;;;;7.32;3.45;;;;;;;-143.29;100.00;62188.47;4917872;29;20028;-95
2024/02/18 10:40:33;;;;;;;12.20;3.70;;;;;;;-143.29;100.00;62188.47;4918061;29;20088;-95
2024/02/18 10:43:02;;;;;;;10.65;3.85;;;;;;;-143.29;100.00;62188.47;4917766;29;20059;-95
2024/02/18 10:45:28;;;;;;;6.00;3.28;;;;;;;-143.29;100.00;62188.47;4917735;29;20079;-96
2024/02/18 10:47:55;;;;;;;9.73;3.42;;;;;;;-143.29;100.00;62188.47;4917918;29;20028;-95
2024/02/18 10:50:27;;;;;;;5.43;3.50;;;;;;;-143.29;100.00;62188.47;4918118;29;20024;-95
2024/02/18 10:53:33;;;;;;;6.32;2.70;;;;;;;-143.29;100.00;62188.47;4917796;29;20035;-94
2024/02/18 10:56:20;;;;;;;5.13;2.50;;;;;;;-143.29;100.00;62188.47;4902882;29;20506;-95
2024/02/18 10:59:12;;;;;;;6.85;2.90;;;;;;;-143.29;100.00;62188.47;4917575;29;20028;-95
2024/02/18 11:01:45;;;;;;;5.13;2.33;;;;;;;-143.29;100.00;62188.47;4917535;29;20079;-94
2024/02/18 11:04:12;;;;;;;3.83;2.35;;;;;;;-143.29;100.00;62188.47;4917317;29;20386;-94